sensor_id;sensor_type;location;lat;lon;timestamp;P1;durP1;ratioP1;P2;durP2;ratioP2
8628;SDS011;4352;49.404;11.092;2022-12-07T00:01:41;10.37;;;7.50;;
8628;SDS011;4352;49.404;11.092;2022-12-07T00:04:10;10.13;;;8.07;;
8628;SDS011;4352;49.404;11.092;2022-12-07T00:06:39;11.20;;;8.47;;
8628;SDS011;4352;49.404;11.092;2022-12-07T00:09:07;12.90;;;8.47;;
8628;SDS011;4352;49.404;11.092;2022-12-07T00:11:36;12.00;;;8.73;;
8628;SDS011;4352;49.404;11.092;2022-12-07T00:14:04;9.97;;;7.27;;
8628;SDS011;4352;49.404;11.092;2022-12-07T00:16:32;12.00;;;8.80;;
8628;SDS011;4352;49.404;11.092;2022-12-07T00:18:59;12.30;;;9.30;;
8628;SDS011;4352;49.404;11.092;2022-12-07T00:21:28;12.23;;;9.00;;
8628;SDS011;4352;49.404;11.092;2022-12-07T00:23:56;12.50;;;9.03;;
8628;SDS011;4352;49.404;11.092;2022-12-07T00:26:24;11.77;;;9.20;;
8628;SDS011;4352;49.404;11.092;2022-12-07T00:28:52;11.63;;;9.23;;
8628;SDS011;4352;49.404;11.092;2022-12-07T00:31:20;13.43;;;9.10;;
8628;SDS011;4352;49.404;11.092;2022-12-07T00:33:47;13.43;;;9.90;;
8628;SDS011;4352;49.404;11.092;2022-12-07T00:36:15;14.90;;;10.50;;
8628;SDS011;4352;49.404;11.092;2022-12-07T00:38:43;13.50;;;9.93;;
8628;SDS011;4352;49.404;11.092;2022-12-07T00:41:11;15.07;;;9.77;;
8628;SDS011;4352;49.404;11.092;2022-12-07T00:43:39;12.83;;;9.03;;
8628;SDS011;4352;49.404;11.092;2022-12-07T00:46:06;11.17;;;8.57;;
8628;SDS011;4352;49.404;11.092;2022-12-07T00:48:34;12.20;;;8.63;;
8628;SDS011;4352;49.404;11.092;2022-12-07T00:51:01;12.77;;;9.53;;
8628;SDS011;4352;49.404;11.092;2022-12-07T00:53:28;13.33;;;9.30;;
8628;SDS011;4352;49.404;11.092;2022-12-07T00:55:56;11.57;;;8.87;;
8628;SDS011;4352;49.404;11.092;2022-12-07T00:58:24;13.23;;;9.17;;
8628;SDS011;4352;49.404;11.092;2022-12-07T01:00:51;11.73;;;8.63;;
8628;SDS011;4352;49.404;11.092;2022-12-07T01:03:18;12.60;;;9.17;;
8628;SDS011;4352;49.404;11.092;2022-12-07T01:05:49;12.83;;;8.87;;
8628;SDS011;4352;49.404;11.092;2022-12-07T01:08:16;13.10;;;8.77;;
8628;SDS011;4352;49.404;11.092;2022-12-07T01:10:43;12.20;;;9.30;;
8628;SDS011;4352;49.404;11.092;2022-12-07T01:13:10;13.33;;;9.40;;
8628;SDS011;4352;49.404;11.092;2022-12-07T01:15:40;13.40;;;9.20;;
8628;SDS011;4352;49.404;11.092;2022-12-07T01:18:07;12.93;;;9.63;;
8628;SDS011;4352;49.404;11.092;2022-12-07T01:20:34;13.13;;;9.47;;
8628;SDS011;4352;49.404;11.092;2022-12-07T01:23:02;14.03;;;9.17;;
8628;SDS011;4352;49.404;11.092;2022-12-07T01:25:29;14.07;;;9.30;;
8628;SDS011;4352;49.404;11.092;2022-12-07T01:27:56;13.07;;;9.67;;
8628;SDS011;4352;49.404;11.092;2022-12-07T01:30:23;16.00;;;9.13;;
8628;SDS011;4352;49.404;11.092;2022-12-07T01:32:52;13.00;;;9.33;;
8628;SDS011;4352;49.404;11.092;2022-12-07T01:35:19;13.20;;;9.77;;
8628;SDS011;4352;49.404;11.092;2022-12-07T01:37:46;13.27;;;9.63;;
8628;SDS011;4352;49.404;11.092;2022-12-07T01:40:13;13.93;;;9.53;;
8628;SDS011;4352;49.404;11.092;2022-12-07T01:42:40;13.53;;;10.07;;
8628;SDS011;4352;49.404;11.092;2022-12-07T01:47:55;18.20;;;9.80;;
8628;SDS011;4352;49.404;11.092;2022-12-07T01:50:24;15.50;;;10.40;;
8628;SDS011;4352;49.404;11.092;2022-12-07T01:52:53;14.20;;;10.17;;
8628;SDS011;4352;49.404;11.092;2022-12-07T01:55:20;14.07;;;10.17;;
8628;SDS011;4352;49.404;11.092;2022-12-07T01:57:48;14.53;;;9.97;;
8628;SDS011;4352;49.404;11.092;2022-12-07T02:00:16;13.47;;;9.57;;
8628;SDS011;4352;49.404;11.092;2022-12-07T02:02:45;14.27;;;10.80;;
8628;SDS011;4352;49.404;11.092;2022-12-07T02:05:15;14.17;;;10.50;;
8628;SDS011;4352;49.404;11.092;2022-12-07T02:07:43;18.20;;;11.60;;
8628;SDS011;4352;49.404;11.092;2022-12-07T02:10:12;15.23;;;10.37;;
8628;SDS011;4352;49.404;11.092;2022-12-07T02:12:39;16.90;;;10.27;;
8628;SDS011;4352;49.404;11.092;2022-12-07T02:15:07;15.87;;;11.13;;
8628;SDS011;4352;49.404;11.092;2022-12-07T02:17:40;15.80;;;11.07;;
8628;SDS011;4352;49.404;11.092;2022-12-07T02:20:11;18.87;;;11.07;;
8628;SDS011;4352;49.404;11.092;2022-12-07T02:22:47;19.43;;;11.30;;
8628;SDS011;4352;49.404;11.092;2022-12-07T02:25:20;16.40;;;11.73;;
8628;SDS011;4352;49.404;11.092;2022-12-07T02:27:50;18.73;;;12.10;;
8628;SDS011;4352;49.404;11.092;2022-12-07T02:30:20;18.07;;;11.90;;
8628;SDS011;4352;49.404;11.092;2022-12-07T02:32:50;17.67;;;11.77;;
8628;SDS011;4352;49.404;11.092;2022-12-07T02:35:18;17.63;;;11.70;;
8628;SDS011;4352;49.404;11.092;2022-12-07T02:37:52;22.40;;;13.20;;
8628;SDS011;4352;49.404;11.092;2022-12-07T02:40:21;18.37;;;12.30;;
8628;SDS011;4352;49.404;11.092;2022-12-07T02:42:50;17.40;;;12.10;;
8628;SDS011;4352;49.404;11.092;2022-12-07T02:45:20;20.30;;;12.60;;
8628;SDS011;4352;49.404;11.092;2022-12-07T02:47:51;20.17;;;12.63;;
8628;SDS011;4352;49.404;11.092;2022-12-07T02:50:18;21.30;;;12.97;;
8628;SDS011;4352;49.404;11.092;2022-12-07T02:52:46;21.07;;;12.17;;
8628;SDS011;4352;49.404;11.092;2022-12-07T02:55:13;18.43;;;12.40;;
8628;SDS011;4352;49.404;11.092;2022-12-07T02:57:46;19.17;;;12.67;;
8628;SDS011;4352;49.404;11.092;2022-12-07T03:00:17;18.63;;;11.93;;
8628;SDS011;4352;49.404;11.092;2022-12-07T03:02:51;21.47;;;12.30;;
8628;SDS011;4352;49.404;11.092;2022-12-07T03:08:11;21.00;;;12.40;;
8628;SDS011;4352;49.404;11.092;2022-12-07T03:10:40;20.97;;;13.07;;
8628;SDS011;4352;49.404;11.092;2022-12-07T03:13:12;19.17;;;12.67;;
8628;SDS011;4352;49.404;11.092;2022-12-07T03:15:42;19.57;;;12.87;;
8628;SDS011;4352;49.404;11.092;2022-12-07T03:18:11;18.87;;;12.00;;
8628;SDS011;4352;49.404;11.092;2022-12-07T03:20:39;23.20;;;13.43;;
8628;SDS011;4352;49.404;11.092;2022-12-07T03:23:08;19.63;;;13.00;;
8628;SDS011;4352;49.404;11.092;2022-12-07T03:25:35;19.97;;;13.07;;
8628;SDS011;4352;49.404;11.092;2022-12-07T03:28:06;21.57;;;13.33;;
8628;SDS011;4352;49.404;11.092;2022-12-07T03:30:35;22.93;;;14.00;;
8628;SDS011;4352;49.404;11.092;2022-12-07T03:33:04;23.53;;;13.10;;
8628;SDS011;4352;49.404;11.092;2022-12-07T03:35:34;20.33;;;12.27;;
8628;SDS011;4352;49.404;11.092;2022-12-07T03:38:04;24.87;;;14.80;;
8628;SDS011;4352;49.404;11.092;2022-12-07T03:40:37;22.60;;;13.97;;
8628;SDS011;4352;49.404;11.092;2022-12-07T03:43:06;19.97;;;12.63;;
8628;SDS011;4352;49.404;11.092;2022-12-07T03:45:36;24.20;;;12.97;;
8628;SDS011;4352;49.404;11.092;2022-12-07T03:48:06;19.70;;;12.53;;
8628;SDS011;4352;49.404;11.092;2022-12-07T03:50:38;21.13;;;13.90;;
8628;SDS011;4352;49.404;11.092;2022-12-07T03:53:09;23.93;;;13.63;;
8628;SDS011;4352;49.404;11.092;2022-12-07T03:55:39;22.83;;;13.33;;
8628;SDS011;4352;49.404;11.092;2022-12-07T03:58:07;21.47;;;12.93;;
8628;SDS011;4352;49.404;11.092;2022-12-07T04:00:36;19.07;;;11.97;;
8628;SDS011;4352;49.404;11.092;2022-12-07T04:03:03;19.53;;;12.53;;
8628;SDS011;4352;49.404;11.092;2022-12-07T04:05:30;19.37;;;13.00;;
8628;SDS011;4352;49.404;11.092;2022-12-07T04:07:59;19.03;;;11.80;;
8628;SDS011;4352;49.404;11.092;2022-12-07T04:10:26;16.67;;;11.17;;
8628;SDS011;4352;49.404;11.092;2022-12-07T04:12:53;17.63;;;11.40;;
8628;SDS011;4352;49.404;11.092;2022-12-07T04:15:20;19.10;;;11.73;;
8628;SDS011;4352;49.404;11.092;2022-12-07T04:17:47;18.17;;;11.50;;
8628;SDS011;4352;49.404;11.092;2022-12-07T04:20:14;17.23;;;10.80;;
8628;SDS011;4352;49.404;11.092;2022-12-07T04:22:41;19.60;;;12.63;;
8628;SDS011;4352;49.404;11.092;2022-12-07T04:25:10;16.93;;;11.43;;
8628;SDS011;4352;49.404;11.092;2022-12-07T04:27:37;17.33;;;11.67;;
8628;SDS011;4352;49.404;11.092;2022-12-07T04:30:05;17.77;;;11.17;;
8628;SDS011;4352;49.404;11.092;2022-12-07T04:32:32;17.13;;;11.20;;
8628;SDS011;4352;49.404;11.092;2022-12-07T04:34:59;18.17;;;11.43;;
8628;SDS011;4352;49.404;11.092;2022-12-07T04:37:26;17.77;;;11.00;;
8628;SDS011;4352;49.404;11.092;2022-12-07T04:39:53;17.37;;;11.50;;
8628;SDS011;4352;49.404;11.092;2022-12-07T04:42:22;21.43;;;12.40;;
8628;SDS011;4352;49.404;11.092;2022-12-07T04:44:49;19.47;;;12.17;;
8628;SDS011;4352;49.404;11.092;2022-12-07T04:47:16;20.97;;;12.30;;
8628;SDS011;4352;49.404;11.092;2022-12-07T04:49:44;22.83;;;12.13;;
8628;SDS011;4352;49.404;11.092;2022-12-07T04:52:11;21.73;;;12.93;;
8628;SDS011;4352;49.404;11.092;2022-12-07T04:54:38;22.43;;;13.33;;
8628;SDS011;4352;49.404;11.092;2022-12-07T04:57:05;21.83;;;14.27;;
8628;SDS011;4352;49.404;11.092;2022-12-07T04:59:33;24.60;;;13.53;;
8628;SDS011;4352;49.404;11.092;2022-12-07T05:02:00;25.57;;;14.87;;
8628;SDS011;4352;49.404;11.092;2022-12-07T05:04:27;31.47;;;18.70;;
8628;SDS011;4352;49.404;11.092;2022-12-07T05:06:55;31.57;;;18.30;;
8628;SDS011;4352;49.404;11.092;2022-12-07T05:09:22;34.97;;;18.57;;
8628;SDS011;4352;49.404;11.092;2022-12-07T05:11:49;30.90;;;16.43;;
8628;SDS011;4352;49.404;11.092;2022-12-07T05:14:16;28.00;;;17.00;;
8628;SDS011;4352;49.404;11.092;2022-12-07T05:16:46;27.83;;;15.80;;
8628;SDS011;4352;49.404;11.092;2022-12-07T05:19:13;30.60;;;17.17;;
8628;SDS011;4352;49.404;11.092;2022-12-07T05:21:41;30.77;;;16.37;;
8628;SDS011;4352;49.404;11.092;2022-12-07T05:24:09;29.20;;;16.93;;
8628;SDS011;4352;49.404;11.092;2022-12-07T05:26:36;31.77;;;17.73;;
8628;SDS011;4352;49.404;11.092;2022-12-07T05:29:03;29.87;;;17.07;;
8628;SDS011;4352;49.404;11.092;2022-12-07T05:31:30;30.80;;;17.97;;
8628;SDS011;4352;49.404;11.092;2022-12-07T05:34:00;37.20;;;19.23;;
8628;SDS011;4352;49.404;11.092;2022-12-07T05:36:27;31.90;;;17.47;;
8628;SDS011;4352;49.404;11.092;2022-12-07T05:38:56;33.90;;;19.03;;
8628;SDS011;4352;49.404;11.092;2022-12-07T05:41:23;34.23;;;18.13;;
8628;SDS011;4352;49.404;11.092;2022-12-07T05:44:07;33.77;;;19.33;;
8628;SDS011;4352;49.404;11.092;2022-12-07T05:46:35;36.63;;;18.57;;
8628;SDS011;4352;49.404;11.092;2022-12-07T05:49:03;32.77;;;18.10;;
8628;SDS011;4352;49.404;11.092;2022-12-07T05:51:30;34.13;;;18.60;;
8628;SDS011;4352;49.404;11.092;2022-12-07T05:53:57;33.10;;;18.17;;
8628;SDS011;4352;49.404;11.092;2022-12-07T05:56:24;33.23;;;17.83;;
8628;SDS011;4352;49.404;11.092;2022-12-07T05:58:52;30.10;;;17.50;;
8628;SDS011;4352;49.404;11.092;2022-12-07T06:01:37;32.53;;;17.60;;
8628;SDS011;4352;49.404;11.092;2022-12-07T06:04:06;33.27;;;19.20;;
8628;SDS011;4352;49.404;11.092;2022-12-07T06:06:33;39.33;;;20.63;;
8628;SDS011;4352;49.404;11.092;2022-12-07T06:09:00;36.37;;;20.23;;
8628;SDS011;4352;49.404;11.092;2022-12-07T06:11:27;35.03;;;18.90;;
8628;SDS011;4352;49.404;11.092;2022-12-07T06:14:12;33.77;;;19.97;;
8628;SDS011;4352;49.404;11.092;2022-12-07T06:16:39;36.30;;;18.73;;
8628;SDS011;4352;49.404;11.092;2022-12-07T06:19:08;34.77;;;19.73;;
8628;SDS011;4352;49.404;11.092;2022-12-07T06:21:35;34.50;;;19.33;;
8628;SDS011;4352;49.404;11.092;2022-12-07T06:24:02;34.60;;;19.50;;
8628;SDS011;4352;49.404;11.092;2022-12-07T06:26:29;33.33;;;18.67;;
8628;SDS011;4352;49.404;11.092;2022-12-07T06:28:56;33.90;;;18.80;;
8628;SDS011;4352;49.404;11.092;2022-12-07T06:31:24;34.37;;;19.40;;
8628;SDS011;4352;49.404;11.092;2022-12-07T06:33:51;34.57;;;19.33;;
8628;SDS011;4352;49.404;11.092;2022-12-07T06:36:19;34.00;;;19.63;;
8628;SDS011;4352;49.404;11.092;2022-12-07T06:38:46;33.63;;;18.93;;
8628;SDS011;4352;49.404;11.092;2022-12-07T06:41:13;34.00;;;18.90;;
8628;SDS011;4352;49.404;11.092;2022-12-07T06:43:40;34.13;;;19.50;;
8628;SDS011;4352;49.404;11.092;2022-12-07T06:46:07;35.03;;;19.33;;
8628;SDS011;4352;49.404;11.092;2022-12-07T06:48:35;34.83;;;19.43;;
8628;SDS011;4352;49.404;11.092;2022-12-07T06:51:02;37.10;;;19.90;;
8628;SDS011;4352;49.404;11.092;2022-12-07T06:53:30;35.20;;;18.33;;
8628;SDS011;4352;49.404;11.092;2022-12-07T06:55:57;38.63;;;19.93;;
8628;SDS011;4352;49.404;11.092;2022-12-07T06:58:24;40.53;;;21.17;;
8628;SDS011;4352;49.404;11.092;2022-12-07T07:00:52;38.77;;;21.27;;
8628;SDS011;4352;49.404;11.092;2022-12-07T07:03:19;34.50;;;18.90;;
8628;SDS011;4352;49.404;11.092;2022-12-07T07:05:46;34.83;;;18.93;;
8628;SDS011;4352;49.404;11.092;2022-12-07T07:08:13;34.27;;;18.87;;
8628;SDS011;4352;49.404;11.092;2022-12-07T07:10:41;37.60;;;19.73;;
8628;SDS011;4352;49.404;11.092;2022-12-07T07:13:09;35.70;;;18.77;;
8628;SDS011;4352;49.404;11.092;2022-12-07T07:15:37;30.30;;;17.27;;
8628;SDS011;4352;49.404;11.092;2022-12-07T07:18:04;35.93;;;18.43;;
8628;SDS011;4352;49.404;11.092;2022-12-07T07:20:31;40.67;;;19.33;;
8628;SDS011;4352;49.404;11.092;2022-12-07T07:22:58;33.47;;;20.17;;
8628;SDS011;4352;49.404;11.092;2022-12-07T07:25:25;35.17;;;19.93;;
8628;SDS011;4352;49.404;11.092;2022-12-07T07:27:54;35.10;;;18.73;;
8628;SDS011;4352;49.404;11.092;2022-12-07T07:30:22;37.93;;;19.80;;
8628;SDS011;4352;49.404;11.092;2022-12-07T07:32:50;39.70;;;22.77;;
8628;SDS011;4352;49.404;11.092;2022-12-07T07:35:17;34.50;;;19.37;;
8628;SDS011;4352;49.404;11.092;2022-12-07T07:37:44;37.70;;;19.83;;
8628;SDS011;4352;49.404;11.092;2022-12-07T07:40:11;33.17;;;19.13;;
8628;SDS011;4352;49.404;11.092;2022-12-07T07:42:38;36.77;;;18.70;;
8628;SDS011;4352;49.404;11.092;2022-12-07T07:45:07;32.57;;;18.90;;
8628;SDS011;4352;49.404;11.092;2022-12-07T07:47:34;31.10;;;17.63;;
8628;SDS011;4352;49.404;11.092;2022-12-07T07:50:01;38.07;;;19.00;;
8628;SDS011;4352;49.404;11.092;2022-12-07T07:52:29;37.83;;;19.67;;
8628;SDS011;4352;49.404;11.092;2022-12-07T07:54:56;34.13;;;19.23;;
8628;SDS011;4352;49.404;11.092;2022-12-07T07:57:23;40.50;;;19.87;;
8628;SDS011;4352;49.404;11.092;2022-12-07T07:59:50;39.37;;;19.40;;
8628;SDS011;4352;49.404;11.092;2022-12-07T08:02:19;34.40;;;19.07;;
8628;SDS011;4352;49.404;11.092;2022-12-07T08:04:47;34.07;;;18.63;;
8628;SDS011;4352;49.404;11.092;2022-12-07T08:07:14;37.73;;;19.93;;
8628;SDS011;4352;49.404;11.092;2022-12-07T08:09:41;32.87;;;18.60;;
8628;SDS011;4352;49.404;11.092;2022-12-07T08:12:08;35.07;;;18.47;;
8628;SDS011;4352;49.404;11.092;2022-12-07T08:14:36;40.20;;;18.53;;
8628;SDS011;4352;49.404;11.092;2022-12-07T08:17:03;31.17;;;17.90;;
8628;SDS011;4352;49.404;11.092;2022-12-07T08:19:31;33.93;;;19.63;;
8628;SDS011;4352;49.404;11.092;2022-12-07T08:21:59;35.93;;;19.33;;
8628;SDS011;4352;49.404;11.092;2022-12-07T08:24:26;35.33;;;18.97;;
8628;SDS011;4352;49.404;11.092;2022-12-07T08:26:53;32.30;;;18.07;;
8628;SDS011;4352;49.404;11.092;2022-12-07T08:29:20;34.87;;;18.27;;
8628;SDS011;4352;49.404;11.092;2022-12-07T08:31:48;30.37;;;17.87;;
8628;SDS011;4352;49.404;11.092;2022-12-07T08:34:15;31.27;;;17.47;;
8628;SDS011;4352;49.404;11.092;2022-12-07T08:36:43;30.30;;;17.80;;
8628;SDS011;4352;49.404;11.092;2022-12-07T08:39:10;30.43;;;17.27;;
8628;SDS011;4352;49.404;11.092;2022-12-07T08:41:37;32.97;;;18.23;;
8628;SDS011;4352;49.404;11.092;2022-12-07T08:44:05;28.17;;;14.80;;
8628;SDS011;4352;49.404;11.092;2022-12-07T08:46:32;33.50;;;17.40;;
8628;SDS011;4352;49.404;11.092;2022-12-07T08:49:03;29.17;;;16.80;;
8628;SDS011;4352;49.404;11.092;2022-12-07T08:51:31;34.27;;;17.77;;
8628;SDS011;4352;49.404;11.092;2022-12-07T08:54:00;28.17;;;16.40;;
8628;SDS011;4352;49.404;11.092;2022-12-07T08:56:28;26.43;;;16.77;;
8628;SDS011;4352;49.404;11.092;2022-12-07T08:58:55;29.27;;;17.30;;
8628;SDS011;4352;49.404;11.092;2022-12-07T09:01:22;28.17;;;16.27;;
8628;SDS011;4352;49.404;11.092;2022-12-07T09:03:49;25.10;;;15.67;;
8628;SDS011;4352;49.404;11.092;2022-12-07T09:06:16;32.80;;;18.03;;
8628;SDS011;4352;49.404;11.092;2022-12-07T09:08:45;30.17;;;17.37;;
8628;SDS011;4352;49.404;11.092;2022-12-07T09:11:14;24.50;;;15.50;;
8628;SDS011;4352;49.404;11.092;2022-12-07T09:13:41;25.13;;;15.53;;
8628;SDS011;4352;49.404;11.092;2022-12-07T09:16:08;24.00;;;15.13;;
8628;SDS011;4352;49.404;11.092;2022-12-07T09:18:35;27.17;;;15.07;;
8628;SDS011;4352;49.404;11.092;2022-12-07T09:21:03;26.43;;;14.90;;
8628;SDS011;4352;49.404;11.092;2022-12-07T09:23:30;24.40;;;13.60;;
8628;SDS011;4352;49.404;11.092;2022-12-07T09:25:58;22.60;;;12.90;;
8628;SDS011;4352;49.404;11.092;2022-12-07T09:28:27;19.50;;;12.13;;
8628;SDS011;4352;49.404;11.092;2022-12-07T09:30:54;22.00;;;13.17;;
8628;SDS011;4352;49.404;11.092;2022-12-07T09:33:21;22.50;;;13.60;;
8628;SDS011;4352;49.404;11.092;2022-12-07T09:35:49;21.67;;;13.63;;
8628;SDS011;4352;49.404;11.092;2022-12-07T09:38:17;20.60;;;12.77;;
8628;SDS011;4352;49.404;11.092;2022-12-07T09:40:44;23.10;;;14.33;;
8628;SDS011;4352;49.404;11.092;2022-12-07T09:43:12;21.37;;;12.67;;
8628;SDS011;4352;49.404;11.092;2022-12-07T09:45:41;23.40;;;12.53;;
8628;SDS011;4352;49.404;11.092;2022-12-07T09:48:11;19.77;;;11.33;;
8628;SDS011;4352;49.404;11.092;2022-12-07T09:50:41;18.20;;;10.80;;
8628;SDS011;4352;49.404;11.092;2022-12-07T09:53:09;24.33;;;12.67;;
8628;SDS011;4352;49.404;11.092;2022-12-07T09:55:36;16.50;;;11.20;;
8628;SDS011;4352;49.404;11.092;2022-12-07T09:58:04;20.03;;;12.23;;
8628;SDS011;4352;49.404;11.092;2022-12-07T10:00:31;19.67;;;11.73;;
8628;SDS011;4352;49.404;11.092;2022-12-07T10:03:00;19.30;;;12.23;;
8628;SDS011;4352;49.404;11.092;2022-12-07T10:05:29;23.67;;;14.00;;
8628;SDS011;4352;49.404;11.092;2022-12-07T10:07:57;19.67;;;11.53;;
8628;SDS011;4352;49.404;11.092;2022-12-07T10:10:25;18.20;;;11.20;;
8628;SDS011;4352;49.404;11.092;2022-12-07T10:12:54;22.77;;;13.23;;
8628;SDS011;4352;49.404;11.092;2022-12-07T10:15:21;20.50;;;12.03;;
8628;SDS011;4352;49.404;11.092;2022-12-07T10:17:49;18.60;;;12.03;;
8628;SDS011;4352;49.404;11.092;2022-12-07T10:20:19;18.23;;;11.43;;
8628;SDS011;4352;49.404;11.092;2022-12-07T10:22:54;18.70;;;11.97;;
8628;SDS011;4352;49.404;11.092;2022-12-07T10:25:22;19.37;;;11.77;;
8628;SDS011;4352;49.404;11.092;2022-12-07T10:27:57;19.80;;;11.83;;
8628;SDS011;4352;49.404;11.092;2022-12-07T10:30:24;20.00;;;12.07;;
8628;SDS011;4352;49.404;11.092;2022-12-07T10:32:51;18.87;;;12.67;;
8628;SDS011;4352;49.404;11.092;2022-12-07T10:35:20;17.33;;;12.13;;
8628;SDS011;4352;49.404;11.092;2022-12-07T10:37:48;17.47;;;11.27;;
8628;SDS011;4352;49.404;11.092;2022-12-07T10:40:30;18.77;;;11.67;;
8628;SDS011;4352;49.404;11.092;2022-12-07T10:43:05;17.47;;;11.43;;
8628;SDS011;4352;49.404;11.092;2022-12-07T10:45:34;17.87;;;10.80;;
8628;SDS011;4352;49.404;11.092;2022-12-07T10:48:02;17.57;;;11.40;;
8628;SDS011;4352;49.404;11.092;2022-12-07T10:50:41;20.77;;;12.17;;
8628;SDS011;4352;49.404;11.092;2022-12-07T10:53:22;16.10;;;9.67;;
8628;SDS011;4352;49.404;11.092;2022-12-07T10:56:01;15.90;;;10.00;;
8628;SDS011;4352;49.404;11.092;2022-12-07T10:58:32;15.83;;;10.87;;
8628;SDS011;4352;49.404;11.092;2022-12-07T11:01:03;19.97;;;10.57;;
8628;SDS011;4352;49.404;11.092;2022-12-07T11:03:37;16.27;;;11.00;;
8628;SDS011;4352;49.404;11.092;2022-12-07T11:06:12;17.20;;;11.23;;
8628;SDS011;4352;49.404;11.092;2022-12-07T11:08:44;15.07;;;10.57;;
8628;SDS011;4352;49.404;11.092;2022-12-07T11:11:16;17.50;;;11.53;;
8628;SDS011;4352;49.404;11.092;2022-12-07T11:13:48;20.03;;;11.87;;
8628;SDS011;4352;49.404;11.092;2022-12-07T11:16:22;16.43;;;11.17;;
8628;SDS011;4352;49.404;11.092;2022-12-07T11:21:42;16.03;;;10.97;;
8628;SDS011;4352;49.404;11.092;2022-12-07T11:24:14;16.67;;;10.80;;
8628;SDS011;4352;49.404;11.092;2022-12-07T11:26:47;19.37;;;11.60;;
8628;SDS011;4352;49.404;11.092;2022-12-07T11:29:21;18.00;;;11.20;;
8628;SDS011;4352;49.404;11.092;2022-12-07T11:31:54;23.97;;;13.27;;
8628;SDS011;4352;49.404;11.092;2022-12-07T11:34:27;15.87;;;10.80;;
8628;SDS011;4352;49.404;11.092;2022-12-07T11:36:59;19.17;;;12.00;;
8628;SDS011;4352;49.404;11.092;2022-12-07T11:39:30;16.97;;;11.33;;
8628;SDS011;4352;49.404;11.092;2022-12-07T11:42:00;17.07;;;10.77;;
8628;SDS011;4352;49.404;11.092;2022-12-07T11:44:31;17.23;;;12.07;;
8628;SDS011;4352;49.404;11.092;2022-12-07T11:47:02;18.97;;;12.03;;
8628;SDS011;4352;49.404;11.092;2022-12-07T11:49:37;16.00;;;11.77;;
8628;SDS011;4352;49.404;11.092;2022-12-07T11:52:09;17.10;;;11.03;;
8628;SDS011;4352;49.404;11.092;2022-12-07T11:54:41;16.40;;;10.60;;
8628;SDS011;4352;49.404;11.092;2022-12-07T11:57:11;20.47;;;12.20;;
8628;SDS011;4352;49.404;11.092;2022-12-07T11:59:40;16.83;;;10.47;;
8628;SDS011;4352;49.404;11.092;2022-12-07T12:02:12;18.07;;;10.77;;
8628;SDS011;4352;49.404;11.092;2022-12-07T12:04:44;15.93;;;11.10;;
8628;SDS011;4352;49.404;11.092;2022-12-07T12:07:15;14.13;;;10.20;;
8628;SDS011;4352;49.404;11.092;2022-12-07T12:09:45;16.53;;;11.07;;
8628;SDS011;4352;49.404;11.092;2022-12-07T12:12:21;15.33;;;10.47;;
8628;SDS011;4352;49.404;11.092;2022-12-07T12:14:56;16.20;;;11.13;;
8628;SDS011;4352;49.404;11.092;2022-12-07T12:20:15;20.13;;;12.63;;
8628;SDS011;4352;49.404;11.092;2022-12-07T12:22:47;22.63;;;13.70;;
8628;SDS011;4352;49.404;11.092;2022-12-07T12:25:17;17.13;;;10.77;;
8628;SDS011;4352;49.404;11.092;2022-12-07T12:27:46;18.53;;;11.40;;
8628;SDS011;4352;49.404;11.092;2022-12-07T12:30:24;17.83;;;11.20;;
8628;SDS011;4352;49.404;11.092;2022-12-07T12:32:52;14.30;;;10.23;;
8628;SDS011;4352;49.404;11.092;2022-12-07T12:38:25;13.30;;;9.33;;
8628;SDS011;4352;49.404;11.092;2022-12-07T12:40:53;16.97;;;9.60;;
8628;SDS011;4352;49.404;11.092;2022-12-07T12:48:52;12.90;;;9.47;;
8628;SDS011;4352;49.404;11.092;2022-12-07T12:51:38;16.07;;;10.13;;
8628;SDS011;4352;49.404;11.092;2022-12-07T12:54:10;14.57;;;9.87;;
8628;SDS011;4352;49.404;11.092;2022-12-07T12:56:40;13.97;;;9.43;;
8628;SDS011;4352;49.404;11.092;2022-12-07T12:59:22;16.30;;;10.63;;
8628;SDS011;4352;49.404;11.092;2022-12-07T13:01:50;15.50;;;9.60;;
8628;SDS011;4352;49.404;11.092;2022-12-07T13:07:02;14.60;;;10.00;;
8628;SDS011;4352;49.404;11.092;2022-12-07T13:09:31;16.40;;;10.53;;
8628;SDS011;4352;49.404;11.092;2022-12-07T13:12:02;15.73;;;10.30;;
8628;SDS011;4352;49.404;11.092;2022-12-07T13:14:41;16.07;;;9.57;;
8628;SDS011;4352;49.404;11.092;2022-12-07T13:17:08;16.27;;;10.20;;
8628;SDS011;4352;49.404;11.092;2022-12-07T13:22:34;20.50;;;11.87;;
8628;SDS011;4352;49.404;11.092;2022-12-07T13:25:07;30.57;;;15.77;;
8628;SDS011;4352;49.404;11.092;2022-12-07T13:27:36;24.67;;;11.80;;
8628;SDS011;4352;49.404;11.092;2022-12-07T13:30:07;23.10;;;11.77;;
8628;SDS011;4352;49.404;11.092;2022-12-07T13:32:39;28.97;;;14.90;;
8628;SDS011;4352;49.404;11.092;2022-12-07T13:37:48;21.17;;;12.87;;
8628;SDS011;4352;49.404;11.092;2022-12-07T13:40:17;21.03;;;12.87;;
8628;SDS011;4352;49.404;11.092;2022-12-07T13:42:45;20.27;;;12.83;;
8628;SDS011;4352;49.404;11.092;2022-12-07T13:45:20;20.97;;;13.00;;
8628;SDS011;4352;49.404;11.092;2022-12-07T13:47:48;19.80;;;12.40;;
8628;SDS011;4352;49.404;11.092;2022-12-07T13:50:22;20.47;;;12.20;;
8628;SDS011;4352;49.404;11.092;2022-12-07T13:52:50;24.50;;;13.60;;
8628;SDS011;4352;49.404;11.092;2022-12-07T13:55:18;20.53;;;13.07;;
8628;SDS011;4352;49.404;11.092;2022-12-07T13:57:47;34.67;;;16.20;;
8628;SDS011;4352;49.404;11.092;2022-12-07T14:00:15;22.90;;;13.27;;
8628;SDS011;4352;49.404;11.092;2022-12-07T14:02:54;22.07;;;13.47;;
8628;SDS011;4352;49.404;11.092;2022-12-07T14:05:23;21.63;;;13.20;;
8628;SDS011;4352;49.404;11.092;2022-12-07T14:07:53;24.53;;;15.03;;
8628;SDS011;4352;49.404;11.092;2022-12-07T14:10:26;24.50;;;14.63;;
8628;SDS011;4352;49.404;11.092;2022-12-07T14:12:54;20.27;;;13.00;;
8628;SDS011;4352;49.404;11.092;2022-12-07T14:15:22;19.67;;;12.40;;
8628;SDS011;4352;49.404;11.092;2022-12-07T14:17:50;19.77;;;13.57;;
8628;SDS011;4352;49.404;11.092;2022-12-07T14:20:30;18.83;;;12.00;;
8628;SDS011;4352;49.404;11.092;2022-12-07T14:22:57;18.00;;;12.60;;
8628;SDS011;4352;49.404;11.092;2022-12-07T14:25:26;21.97;;;12.87;;
8628;SDS011;4352;49.404;11.092;2022-12-07T14:27:54;18.13;;;12.33;;
8628;SDS011;4352;49.404;11.092;2022-12-07T14:30:23;20.63;;;13.17;;
8628;SDS011;4352;49.404;11.092;2022-12-07T14:32:51;19.43;;;11.70;;
8628;SDS011;4352;49.404;11.092;2022-12-07T14:35:19;22.37;;;12.40;;
8628;SDS011;4352;49.404;11.092;2022-12-07T14:37:47;19.13;;;11.90;;
8628;SDS011;4352;49.404;11.092;2022-12-07T14:40:16;21.17;;;12.97;;
8628;SDS011;4352;49.404;11.092;2022-12-07T14:42:44;23.83;;;13.03;;
8628;SDS011;4352;49.404;11.092;2022-12-07T14:45:13;19.07;;;12.20;;
8628;SDS011;4352;49.404;11.092;2022-12-07T14:47:42;19.07;;;12.90;;
8628;SDS011;4352;49.404;11.092;2022-12-07T14:50:11;17.87;;;12.07;;
8628;SDS011;4352;49.404;11.092;2022-12-07T14:52:38;21.60;;;12.97;;
8628;SDS011;4352;49.404;11.092;2022-12-07T14:55:07;25.83;;;13.80;;
8628;SDS011;4352;49.404;11.092;2022-12-07T14:57:39;24.10;;;13.63;;
8628;SDS011;4352;49.404;11.092;2022-12-07T15:00:08;20.93;;;13.40;;
8628;SDS011;4352;49.404;11.092;2022-12-07T15:02:35;22.57;;;13.17;;
8628;SDS011;4352;49.404;11.092;2022-12-07T15:05:03;22.23;;;12.20;;
8628;SDS011;4352;49.404;11.092;2022-12-07T15:07:30;17.17;;;11.37;;
8628;SDS011;4352;49.404;11.092;2022-12-07T15:09:57;21.83;;;12.70;;
8628;SDS011;4352;49.404;11.092;2022-12-07T15:12:24;19.03;;;12.50;;
8628;SDS011;4352;49.404;11.092;2022-12-07T15:14:52;20.83;;;11.80;;